sensor_id;sensor_type;location;lat;lon;timestamp;pressure;altitude;pressure_sealevel;temperature;humidity
80851;BME280;70268;50.292;6.666;2023-06-05T00:00:57;96818.50;;;21.27;52.39
80851;BME280;70268;50.292;6.666;2023-06-05T00:03:27;96824.13;;;21.24;52.40
80851;BME280;70268;50.292;6.666;2023-06-05T00:05:57;96822.72;;;21.13;53.12
80851;BME280;70268;50.292;6.666;2023-06-05T00:08:26;96822.56;;;21.15;53.00
80851;BME280;70268;50.292;6.666;2023-06-05T00:10:55;96815.81;;;21.12;53.06
80851;BME280;70268;50.292;6.666;2023-06-05T00:13:24;96817.19;;;21.08;52.85
80851;BME280;70268;50.292;6.666;2023-06-05T00:15:53;96819.47;;;21.11;53.04
80851;BME280;70268;50.292;6.666;2023-06-05T00:18:21;96818.19;;;21.07;53.34
80851;BME280;70268;50.292;6.666;2023-06-05T00:20:50;96816.34;;;21.08;52.97
80851;BME280;70268;50.292;6.666;2023-06-05T00:23:18;96815.91;;;21.04;53.05
80851;BME280;70268;50.292;6.666;2023-06-05T00:25:47;96816.06;;;21.03;53.23
80851;BME280;70268;50.292;6.666;2023-06-05T00:28:17;96811.09;;;21.08;53.21
80851;BME280;70268;50.292;6.666;2023-06-05T00:30:46;96803.09;;;21.01;53.46
80851;BME280;70268;50.292;6.666;2023-06-05T00:33:14;96809.19;;;21.02;53.35
80851;BME280;70268;50.292;6.666;2023-06-05T00:35:43;96810.00;;;21.02;53.23
80851;BME280;70268;50.292;6.666;2023-06-05T00:38:11;96799.69;;;21.01;53.65
80851;BME280;70268;50.292;6.666;2023-06-05T00:40:40;96811.00;;;21.01;52.88
80851;BME280;70268;50.292;6.666;2023-06-05T00:43:08;96805.97;;;21.14;53.68
80851;BME280;70268;50.292;6.666;2023-06-05T00:45:38;96801.53;;;21.15;53.12
80851;BME280;70268;50.292;6.666;2023-06-05T00:48:07;96812.38;;;21.12;53.47
80851;BME280;70268;50.292;6.666;2023-06-05T00:50:38;96813.56;;;21.09;53.53
80851;BME280;70268;50.292;6.666;2023-06-05T00:53:07;96812.38;;;21.12;53.20
80851;BME280;70268;50.292;6.666;2023-06-05T00:55:36;96810.56;;;21.12;52.92
80851;BME280;70268;50.292;6.666;2023-06-05T00:58:05;96807.59;;;21.15;52.91
80851;BME280;70268;50.292;6.666;2023-06-05T01:00:34;96810.28;;;21.07;53.42
80851;BME280;70268;50.292;6.666;2023-06-05T01:03:04;96811.00;;;21.01;53.50
80851;BME280;70268;50.292;6.666;2023-06-05T01:05:36;96813.34;;;20.96;53.32
80851;BME280;70268;50.292;6.666;2023-06-05T01:08:05;96805.09;;;20.99;53.49
80851;BME280;70268;50.292;6.666;2023-06-05T01:10:36;96806.72;;;21.00;53.17
80851;BME280;70268;50.292;6.666;2023-06-05T01:13:14;96802.47;;;20.99;53.38
80851;BME280;70268;50.292;6.666;2023-06-05T01:15:46;96806.28;;;20.96;53.10
80851;BME280;70268;50.292;6.666;2023-06-05T01:18:17;96801.53;;;20.92;53.65
80851;BME280;70268;50.292;6.666;2023-06-05T01:20:45;96795.63;;;20.90;53.23
80851;BME280;70268;50.292;6.666;2023-06-05T01:23:16;96799.25;;;20.89;53.42
80851;BME280;70268;50.292;6.666;2023-06-05T01:25:45;96793.31;;;20.87;53.81
80851;BME280;70268;50.292;6.666;2023-06-05T01:28:17;96794.81;;;20.89;53.64
80851;BME280;70268;50.292;6.666;2023-06-05T01:30:52;96789.56;;;20.89;53.27
80851;BME280;70268;50.292;6.666;2023-06-05T01:33:30;96790.84;;;20.85;53.61
80851;BME280;70268;50.292;6.666;2023-06-05T01:36:02;96787.91;;;20.88;53.11
80851;BME280;70268;50.292;6.666;2023-06-05T01:38:34;96792.03;;;20.83;53.71
80851;BME280;70268;50.292;6.666;2023-06-05T01:41:03;96778.41;;;20.79;53.70
80851;BME280;70268;50.292;6.666;2023-06-05T01:43:33;96780.53;;;20.84;53.78
80851;BME280;70268;50.292;6.666;2023-06-05T01:46:04;96775.28;;;20.84;53.33
80851;BME280;70268;50.292;6.666;2023-06-05T01:48:35;96779.09;;;20.81;53.54
80851;BME280;70268;50.292;6.666;2023-06-05T01:51:07;96772.19;;;20.80;53.74
80851;BME280;70268;50.292;6.666;2023-06-05T01:53:37;96774.34;;;20.76;53.75
80851;BME280;70268;50.292;6.666;2023-06-05T01:56:06;96774.72;;;20.73;53.45
80851;BME280;70268;50.292;6.666;2023-06-05T01:58:36;96767.28;;;20.77;53.29
80851;BME280;70268;50.292;6.666;2023-06-05T02:01:05;96767.97;;;20.71;53.57
80851;BME280;70268;50.292;6.666;2023-06-05T02:03:35;96764.25;;;20.88;53.81
80851;BME280;70268;50.292;6.666;2023-06-05T02:06:05;96762.91;;;20.92;53.21
80851;BME280;70268;50.292;6.666;2023-06-05T02:08:34;96762.47;;;20.89;53.92
80851;BME280;70268;50.292;6.666;2023-06-05T02:11:04;96769.66;;;20.87;53.99
80851;BME280;70268;50.292;6.666;2023-06-05T02:13:38;96768.03;;;20.86;54.37
80851;BME280;70268;50.292;6.666;2023-06-05T02:16:09;96764.41;;;20.63;55.12
80851;BME280;70268;50.292;6.666;2023-06-05T02:18:38;96769.81;;;20.70;54.77
80851;BME280;70268;50.292;6.666;2023-06-05T02:21:07;96767.53;;;20.67;54.63
80851;BME280;70268;50.292;6.666;2023-06-05T02:23:35;96768.34;;;20.68;54.76
80851;BME280;70268;50.292;6.666;2023-06-05T02:26:05;96767.63;;;20.74;54.84
80851;BME280;70268;50.292;6.666;2023-06-05T02:28:34;96764.59;;;20.62;55.06
80851;BME280;70268;50.292;6.666;2023-06-05T02:31:02;96770.19;;;20.59;54.61
80851;BME280;70268;50.292;6.666;2023-06-05T02:33:32;96770.00;;;20.60;54.79
80851;BME280;70268;50.292;6.666;2023-06-05T02:36:00;96764.47;;;20.55;54.64
80851;BME280;70268;50.292;6.666;2023-06-05T02:38:29;96762.31;;;20.59;54.51
80851;BME280;70268;50.292;6.666;2023-06-05T02:40:58;96759.69;;;20.59;54.86
80851;BME280;70268;50.292;6.666;2023-06-05T02:43:28;96761.84;;;20.55;54.75
80851;BME280;70268;50.292;6.666;2023-06-05T02:45:57;96758.38;;;20.55;54.89
80851;BME280;70268;50.292;6.666;2023-06-05T02:48:25;96756.78;;;20.54;54.95
80851;BME280;70268;50.292;6.666;2023-06-05T02:50:55;96754.16;;;20.54;54.58
80851;BME280;70268;50.292;6.666;2023-06-05T02:53:24;96757.66;;;20.46;54.70
80851;BME280;70268;50.292;6.666;2023-06-05T02:55:53;96758.28;;;20.48;54.74
80851;BME280;70268;50.292;6.666;2023-06-05T02:58:23;96761.44;;;20.43;55.28
80851;BME280;70268;50.292;6.666;2023-06-05T03:00:57;96750.75;;;20.45;55.60
80851;BME280;70268;50.292;6.666;2023-06-05T03:03:34;96750.41;;;20.48;55.12
80851;BME280;70268;50.292;6.666;2023-06-05T03:06:04;96753.09;;;20.40;55.62
80851;BME280;70268;50.292;6.666;2023-06-05T03:08:40;96755.88;;;20.38;56.14
80851;BME280;70268;50.292;6.666;2023-06-05T03:11:13;96765.22;;;20.41;55.46
80851;BME280;70268;50.292;6.666;2023-06-05T03:13:42;96754.88;;;20.39;55.57
80851;BME280;70268;50.292;6.666;2023-06-05T03:16:12;96754.41;;;20.36;55.45
80851;BME280;70268;50.292;6.666;2023-06-05T03:18:46;96756.06;;;20.37;56.08
80851;BME280;70268;50.292;6.666;2023-06-05T03:21:15;96752.06;;;20.41;56.06
80851;BME280;70268;50.292;6.666;2023-06-05T03:23:44;96749.78;;;20.38;56.54
80851;BME280;70268;50.292;6.666;2023-06-05T03:26:15;96750.63;;;20.38;55.92
80851;BME280;70268;50.292;6.666;2023-06-05T03:28:43;96749.97;;;20.36;56.11
80851;BME280;70268;50.292;6.666;2023-06-05T03:31:13;96741.50;;;20.26;56.52
80851;BME280;70268;50.292;6.666;2023-06-05T03:33:45;96744.78;;;20.28;56.25
80851;BME280;70268;50.292;6.666;2023-06-05T03:36:15;96748.03;;;20.30;56.02
80851;BME280;70268;50.292;6.666;2023-06-05T03:38:48;96748.38;;;20.27;56.28
80851;BME280;70268;50.292;6.666;2023-06-05T03:41:17;96747.56;;;20.26;55.91
80851;BME280;70268;50.292;6.666;2023-06-05T03:43:45;96751.34;;;20.24;56.17
80851;BME280;70268;50.292;6.666;2023-06-05T03:46:16;96748.91;;;20.22;55.52
80851;BME280;70268;50.292;6.666;2023-06-05T03:48:48;96751.53;;;20.22;56.22
80851;BME280;70268;50.292;6.666;2023-06-05T03:51:17;96752.94;;;20.33;57.23
80851;BME280;70268;50.292;6.666;2023-06-05T03:53:46;96753.59;;;20.35;59.54
80851;BME280;70268;50.292;6.666;2023-06-05T03:56:23;96751.81;;;20.27;58.86
80851;BME280;70268;50.292;6.666;2023-06-05T03:58:59;96748.72;;;20.24;58.48
80851;BME280;70268;50.292;6.666;2023-06-05T04:01:39;96756.31;;;20.19;57.92
80851;BME280;70268;50.292;6.666;2023-06-05T04:04:08;96762.38;;;20.19;58.34
80851;BME280;70268;50.292;6.666;2023-06-05T04:06:37;96759.47;;;20.14;57.86
80851;BME280;70268;50.292;6.666;2023-06-05T04:09:09;96764.53;;;20.16;57.54
80851;BME280;70268;50.292;6.666;2023-06-05T04:11:43;96760.78;;;20.10;57.39
80851;BME280;70268;50.292;6.666;2023-06-05T04:14:13;96764.53;;;20.16;57.59
80851;BME280;70268;50.292;6.666;2023-06-05T04:16:43;96762.44;;;20.11;57.52
80851;BME280;70268;50.292;6.666;2023-06-05T04:19:17;96759.28;;;20.16;56.85
80851;BME280;70268;50.292;6.666;2023-06-05T04:21:48;96759.63;;;20.13;56.79
80851;BME280;70268;50.292;6.666;2023-06-05T04:24:18;96760.25;;;20.15;57.01
80851;BME280;70268;50.292;6.666;2023-06-05T04:26:47;96757.81;;;20.13;56.50
80851;BME280;70268;50.292;6.666;2023-06-05T04:29:16;96756.00;;;20.14;56.99
80851;BME280;70268;50.292;6.666;2023-06-05T04:31:47;96757.81;;;20.13;56.44
80851;BME280;70268;50.292;6.666;2023-06-05T04:34:16;96759.91;;;20.18;56.41
80851;BME280;70268;50.292;6.666;2023-06-05T04:36:46;96761.75;;;20.17;56.70
80851;BME280;70268;50.292;6.666;2023-06-05T04:39:18;96766.66;;;20.20;56.36
80851;BME280;70268;50.292;6.666;2023-06-05T04:41:47;96763.69;;;20.23;55.96
80851;BME280;70268;50.292;6.666;2023-06-05T04:44:33;96772.19;;;20.25;56.22
80851;BME280;70268;50.292;6.666;2023-06-05T04:47:05;96763.50;;;20.25;55.65
80851;BME280;70268;50.292;6.666;2023-06-05T04:49:35;96766.59;;;20.28;55.57
80851;BME280;70268;50.292;6.666;2023-06-05T04:52:05;96764.47;;;20.24;56.19
80851;BME280;70268;50.292;6.666;2023-06-05T04:54:34;96764.13;;;20.27;55.47
80851;BME280;70268;50.292;6.666;2023-06-05T04:57:04;96761.97;;;20.31;55.43
80851;BME280;70268;50.292;6.666;2023-06-05T04:59:33;96764.59;;;20.31;55.39
80851;BME280;70268;50.292;6.666;2023-06-05T05:02:05;96758.03;;;20.35;55.22
80851;BME280;70268;50.292;6.666;2023-06-05T05:04:34;96767.53;;;20.36;55.42
80851;BME280;70268;50.292;6.666;2023-06-05T05:07:03;96773.44;;;20.38;55.00
80851;BME280;70268;50.292;6.666;2023-06-05T05:09:33;96767.66;;;20.42;54.86
80851;BME280;70268;50.292;6.666;2023-06-05T05:12:05;96770.78;;;20.46;54.76
80851;BME280;70268;50.292;6.666;2023-06-05T05:14:35;96766.50;;;20.45;55.00
80851;BME280;70268;50.292;6.666;2023-06-05T05:17:05;96772.22;;;20.49;55.39
80851;BME280;70268;50.292;6.666;2023-06-05T05:19:35;96768.59;;;20.50;54.63
80851;BME280;70268;50.292;6.666;2023-06-05T05:22:07;96763.19;;;20.51;54.82
80851;BME280;70268;50.292;6.666;2023-06-05T05:24:36;96764.81;;;20.52;54.35
80851;BME280;70268;50.292;6.666;2023-06-05T05:27:04;96756.94;;;20.52;54.81
80851;BME280;70268;50.292;6.666;2023-06-05T05:29:36;96768.09;;;20.54;54.50
80851;BME280;70268;50.292;6.666;2023-06-05T05:32:06;96761.50;;;20.58;54.31
80851;BME280;70268;50.292;6.666;2023-06-05T05:34:35;96759.84;;;20.57;54.55
80851;BME280;70268;50.292;6.666;2023-06-05T05:37:04;96759.50;;;20.60;54.67
80851;BME280;70268;50.292;6.666;2023-06-05T05:39:33;96758.88;;;20.58;54.26
80851;BME280;70268;50.292;6.666;2023-06-05T05:42:02;96760.50;;;20.59;54.02
80851;BME280;70268;50.292;6.666;2023-06-05T05:44:30;96755.72;;;20.63;54.25
80851;BME280;70268;50.292;6.666;2023-06-05T05:46:59;96770.31;;;20.66;54.04
80851;BME280;70268;50.292;6.666;2023-06-05T05:49:29;96765.88;;;20.66;54.44
80851;BME280;70268;50.292;6.666;2023-06-05T05:51:57;96766.34;;;20.70;53.91
80851;BME280;70268;50.292;6.666;2023-06-05T05:54:26;96761.44;;;20.67;53.68
80851;BME280;70268;50.292;6.666;2023-06-05T05:56:55;96765.34;;;20.71;53.82
80851;BME280;70268;50.292;6.666;2023-06-05T05:59:23;96763.34;;;20.73;53.96
80851;BME280;70268;50.292;6.666;2023-06-05T06:01:52;96765.47;;;20.77;53.79
80851;BME280;70268;50.292;6.666;2023-06-05T06:04:20;96763.84;;;20.76;53.60
80851;BME280;70268;50.292;6.666;2023-06-05T06:06:50;96762.66;;;20.79;53.97
80851;BME280;70268;50.292;6.666;2023-06-05T06:09:20;96765.09;;;20.80;53.86
80851;BME280;70268;50.292;6.666;2023-06-05T06:11:48;96768.56;;;20.81;53.39
80851;BME280;70268;50.292;6.666;2023-06-05T06:14:16;96764.41;;;20.87;53.70
80851;BME280;70268;50.292;6.666;2023-06-05T06:16:45;96762.47;;;20.89;53.04
80851;BME280;70268;50.292;6.666;2023-06-05T06:19:14;96766.06;;;20.88;53.39
80851;BME280;70268;50.292;6.666;2023-06-05T06:21:43;96770.81;;;20.92;53.00
80851;BME280;70268;50.292;6.666;2023-06-05T06:24:13;96767.38;;;20.92;53.18
80851;BME280;70268;50.292;6.666;2023-06-05T06:26:43;96765.72;;;20.91;53.35
80851;BME280;70268;50.292;6.666;2023-06-05T06:29:13;96777.53;;;20.95;53.29
80851;BME280;70268;50.292;6.666;2023-06-05T06:31:42;96773.06;;;20.95;53.32
80851;BME280;70268;50.292;6.666;2023-06-05T06:34:11;96772.72;;;20.98;52.61
80851;BME280;70268;50.292;6.666;2023-06-05T06:36:40;96771.75;;;21.00;53.07
80851;BME280;70268;50.292;6.666;2023-06-05T06:39:11;96774.19;;;21.01;52.65
80851;BME280;70268;50.292;6.666;2023-06-05T06:41:41;96762.69;;;21.02;53.02
80851;BME280;70268;50.292;6.666;2023-06-05T06:44:10;96765.16;;;21.04;52.66
80851;BME280;70268;50.292;6.666;2023-06-05T06:46:39;96766.75;;;21.05;52.72
80851;BME280;70268;50.292;6.666;2023-06-05T06:49:08;96771.66;;;21.08;52.78
80851;BME280;70268;50.292;6.666;2023-06-05T06:51:37;96768.03;;;21.09;52.38
80851;BME280;70268;50.292;6.666;2023-06-05T06:54:05;96774.59;;;21.13;52.76
80851;BME280;70268;50.292;6.666;2023-06-05T06:56:34;96777.41;;;21.11;52.44
80851;BME280;70268;50.292;6.666;2023-06-05T06:59:11;96774.59;;;21.13;52.19
80851;BME280;70268;50.292;6.666;2023-06-05T07:01:43;96781.47;;;21.14;52.25
80851;BME280;70268;50.292;6.666;2023-06-05T07:04:13;96776.69;;;21.18;52.59
80851;BME280;70268;50.292;6.666;2023-06-05T07:06:44;96780.94;;;21.19;51.89
80851;BME280;70268;50.292;6.666;2023-06-05T07:09:12;96775.69;;;21.19;51.98
80851;BME280;70268;50.292;6.666;2023-06-05T07:11:41;96777.94;;;21.22;51.95
80851;BME280;70268;50.292;6.666;2023-06-05T07:14:11;96781.59;;;21.21;52.29
80851;BME280;70268;50.292;6.666;2023-06-05T07:16:40;96776.16;;;21.22;51.88
80851;BME280;70268;50.292;6.666;2023-06-05T07:19:08;96770.91;;;21.22;51.76
80851;BME280;70268;50.292;6.666;2023-06-05T07:21:37;96780.25;;;21.25;52.06
80851;BME280;70268;50.292;6.666;2023-06-05T07:24:06;96773.97;;;21.26;51.53
80851;BME280;70268;50.292;6.666;2023-06-05T07:26:35;96770.19;;;21.28;51.44
80851;BME280;70268;50.292;6.666;2023-06-05T07:29:04;96773.63;;;21.29;51.48
80851;BME280;70268;50.292;6.666;2023-06-05T07:31:35;96767.38;;;21.30;51.94
80851;BME280;70268;50.292;6.666;2023-06-05T07:34:03;96770.63;;;21.32;51.75
80851;BME280;70268;50.292;6.666;2023-06-05T07:36:32;96772.28;;;21.33;51.56
80851;BME280;70268;50.292;6.666;2023-06-05T07:39:02;96767.00;;;21.33;51.89
80851;BME280;70268;50.292;6.666;2023-06-05T07:41:30;96763.41;;;21.34;52.08
80851;BME280;70268;50.292;6.666;2023-06-05T07:43:59;96761.56;;;21.34;51.95
80851;BME280;70268;50.292;6.666;2023-06-05T07:46:27;96762.19;;;21.37;51.61
80851;BME280;70268;50.292;6.666;2023-06-05T07:48:57;96760.22;;;21.39;52.07
80851;BME280;70268;50.292;6.666;2023-06-05T07:51:26;96762.84;;;21.39;51.47
80851;BME280;70268;50.292;6.666;2023-06-05T07:53:54;96753.13;;;21.39;51.62
80851;BME280;70268;50.292;6.666;2023-06-05T07:56:23;96756.56;;;21.40;51.54
80851;BME280;70268;50.292;6.666;2023-06-05T07:58:52;96759.88;;;21.42;51.46
80851;BME280;70268;50.292;6.666;2023-06-05T08:01:21;96758.84;;;21.43;51.50
80851;BME280;70268;50.292;6.666;2023-06-05T08:03:49;96765.56;;;21.45;51.37
80851;BME280;70268;50.292;6.666;2023-06-05T08:06:23;96757.69;;;21.45;51.66
80851;BME280;70268;50.292;6.666;2023-06-05T08:08:52;96747.97;;;21.46;51.10
80851;BME280;70268;50.292;6.666;2023-06-05T08:11:21;96755.69;;;21.47;51.28
80851;BME280;70268;50.292;6.666;2023-06-05T08:13:49;96751.25;;;21.48;50.95
80851;BME280;70268;50.292;6.666;2023-06-05T08:16:18;96750.22;;;21.49;51.20
80851;BME280;70268;50.292;6.666;2023-06-05T08:18:47;96748.25;;;21.51;51.14
80851;BME280;70268;50.292;6.666;2023-06-05T08:21:15;96748.25;;;21.51;51.31
80851;BME280;70268;50.292;6.666;2023-06-05T08:23:46;96748.88;;;21.53;51.33
80851;BME280;70268;50.292;6.666;2023-06-05T08:26:14;96747.91;;;21.54;50.95
80851;BME280;70268;50.292;6.666;2023-06-05T08:28:43;96746.06;;;21.55;50.80
80851;BME280;70268;50.292;6.666;2023-06-05T08:31:11;96744.09;;;21.57;50.75
80851;BME280;70268;50.292;6.666;2023-06-05T08:33:41;96740.44;;;21.58;50.76
80851;BME280;70268;50.292;6.666;2023-06-05T08:36:10;96742.91;;;21.59;50.50
80851;BME280;70268;50.292;6.666;2023-06-05T08:38:38;96746.38;;;21.60;50.41
80851;BME280;70268;50.292;6.666;2023-06-05T08:41:13;96746.38;;;21.60;50.72
80851;BME280;70268;50.292;6.666;2023-06-05T08:43:44;96745.34;;;21.61;50.67
80851;BME280;70268;50.292;6.666;2023-06-05T08:46:13;96745.34;;;21.61;50.81
80851;BME280;70268;50.292;6.666;2023-06-05T08:48:43;96747.78;;;21.62;50.63
80851;BME280;70268;50.292;6.666;2023-06-05T08:51:13;96739.72;;;21.64;50.41
80851;BME280;70268;50.292;6.666;2023-06-05T08:53:46;96748.28;;;21.66;50.63
80851;BME280;70268;50.292;6.666;2023-06-05T08:56:17;96745.63;;;21.66;50.63
80851;BME280;70268;50.292;6.666;2023-06-05T08:58:46;96742.16;;;21.65;50.55
80851;BME280;70268;50.292;6.666;2023-06-05T09:01:16;96743.81;;;21.66;50.78
80851;BME280;70268;50.292;6.666;2023-06-05T09:03:45;96745.63;;;21.66;50.76
80851;BME280;70268;50.292;6.666;2023-06-05T09:06:14;96739.53;;;21.65;50.76
80851;BME280;70268;50.292;6.666;2023-06-05T09:08:42;96742.81;;;21.67;50.55
80851;BME280;70268;50.292;6.666;2023-06-05T09:11:23;96739.16;;;21.68;50.76
80851;BME280;70268;50.292;6.666;2023-06-05T09:13:53;96736.72;;;21.67;50.61
80851;BME280;70268;50.292;6.666;2023-06-05T09:16:31;96738.00;;;21.71;50.46
80851;BME280;70268;50.292;6.666;2023-06-05T09:19:00;96741.25;;;21.73;50.19
80851;BME280;70268;50.292;6.666;2023-06-05T09:21:29;96734.38;;;21.72;50.33
80851;BME280;70268;50.292;6.666;2023-06-05T09:24:14;96745.53;;;21.74;50.57
80851;BME280;70268;50.292;6.666;2023-06-05T09:26:53;96741.94;;;21.75;50.25
80851;BME280;70268;50.292;6.666;2023-06-05T09:29:23;96729.13;;;21.72;50.18
80851;BME280;70268;50.292;6.666;2023-06-05T09:31:53;96731.75;;;21.72;50.69
80851;BME280;70268;50.292;6.666;2023-06-05T09:34:26;96739.81;;;21.71;50.38
80851;BME280;70268;50.292;6.666;2023-06-05T09:36:56;96738.00;;;21.71;50.70
80851;BME280;70268;50.292;6.666;2023-06-05T09:39:26;96731.75;;;21.72;50.37
80851;BME280;70268;50.292;6.666;2023-06-05T09:41:57;96730.91;;;21.72;50.45
80851;BME280;70268;50.292;6.666;2023-06-05T09:44:27;96740.44;;;21.73;51.00
80851;BME280;70268;50.292;6.666;2023-06-05T09:46:57;96733.53;;;21.72;50.63
80851;BME280;70268;50.292;6.666;2023-06-05T09:49:30;96732.38;;;21.74;50.52
80851;BME280;70268;50.292;6.666;2023-06-05T09:52:00;96731.56;;;21.74;50.76
80851;BME280;70268;50.292;6.666;2023-06-05T09:54:29;96735.81;;;21.75;50.72
80851;BME280;70268;50.292;6.666;2023-06-05T09:57:02;96732.38;;;21.74;50.55
80851;BME280;70268;50.292;6.666;2023-06-05T09:59:32;96729.13;;;21.72;50.86
80851;BME280;70268;50.292;6.666;2023-06-05T10:02:02;96726.50;;;21.72;50.61
80851;BME280;70268;50.292;6.666;2023-06-05T10:04:37;96723.53;;;21.75;50.93
80851;BME280;70268;50.292;6.666;2023-06-05T10:07:09;96723.34;;;21.77;50.74
80851;BME280;70268;50.292;6.666;2023-06-05T10:09:38;96727.75;;;21.76;50.53
80851;BME280;70268;50.292;6.666;2023-06-05T10:12:09;96723.97;;;21.79;50.42
80851;BME280;70268;50.292;6.666;2023-06-05T10:14:41;96722.13;;;21.79;50.45
80851;BME280;70268;50.292;6.666;2023-06-05T10:17:11;96726.59;;;21.79;50.38
80851;BME280;70268;50.292;6.666;2023-06-05T10:19:41;96730.03;;;21.79;50.32
80851;BME280;70268;50.292;6.666;2023-06-05T10:22:10;96725.41;;;21.81;50.47
80851;BME280;70268;50.292;6.666;2023-06-05T10:24:44;96721.78;;;21.82;49.91
80851;BME280;70268;50.292;6.666;2023-06-05T10:27:32;96726.84;;;21.84;50.06
80851;BME280;70268;50.292;6.666;2023-06-05T10:30:21;96721.16;;;21.80;50.17
80851;BME280;70268;50.292;6.666;2023-06-05T10:33:02;96731.50;;;21.82;49.89
80851;BME280;70268;50.292;6.666;2023-06-05T10:35:47;96731.31;;;21.83;49.88
80851;BME280;70268;50.292;6.666;2023-06-05T10:38:19;96726.22;;;21.82;49.65
80851;BME280;70268;50.292;6.666;2023-06-05T10:40:52;96726.22;;;21.82;50.33
80851;BME280;70268;50.292;6.666;2023-06-05T10:43:30;96731.50;;;21.82;50.44
80851;BME280;70268;50.292;6.666;2023-06-05T10:46:00;96724.75;;;21.79;50.07
80851;BME280;70268;50.292;6.666;2023-06-05T10:51:36;96715.44;;;21.77;50.52
80851;BME280;70268;50.292;6.666;2023-06-05T10:54:10;96720.03;;;21.75;50.60
80851;BME280;70268;50.292;6.666;2023-06-05T10:56:57;96712.31;;;21.73;50.66
80851;BME280;70268;50.292;6.666;2023-06-05T10:59:29;96716.59;;;21.74;50.75
80851;BME280;70268;50.292;6.666;2023-06-05T11:02:23;96717.38;;;21.75;50.55
80851;BME280;70268;50.292;6.666;2023-06-05T11:05:08;96715.63;;;21.75;50.45
80851;BME280;70268;50.292;6.666;2023-06-05T11:07:41;96713.00;;;21.75;50.55
80851;BME280;70268;50.292;6.666;2023-06-05T11:10:15;96713.16;;;21.74;50.49
80851;BME280;70268;50.292;6.666;2023-06-05T11:12:54;96718.25;;;21.75;50.54
80851;BME280;70268;50.292;6.666;2023-06-05T11:15:38;96714.75;;;21.75;50.37
80851;BME280;70268;50.292;6.666;2023-06-05T11:18:31;96714.59;;;21.76;50.47
80851;BME280;70268;50.292;6.666;2023-06-05T11:21:00;96716.25;;;21.77;50.37
80851;BME280;70268;50.292;6.666;2023-06-05T11:23:29;96708.53;;;21.76;50.30
80851;BME280;70268;50.292;6.666;2023-06-05T11:29:11;96702.63;;;21.74;50.60
80851;BME280;70268;50.292;6.666;2023-06-05T11:31:42;96698.34;;;21.73;50.57
80851;BME280;70268;50.292;6.666;2023-06-05T11:34:12;96702.81;;;21.72;50.44
80851;BME280;70268;50.292;6.666;2023-06-05T11:36:41;96698.34;;;21.73;50.45
80851;BME280;70268;50.292;6.666;2023-06-05T11:39:10;96701.97;;;21.72;50.63
80851;BME280;70268;50.292;6.666;2023-06-05T11:41:43;96700.00;;;21.74;50.63
80851;BME280;70268;50.292;6.666;2023-06-05T11:44:13;96696.34;;;21.75;50.56
80851;BME280;70268;50.292;6.666;2023-06-05T11:46:43;96693.88;;;21.73;50.56
80851;BME280;70268;50.292;6.666;2023-06-05T11:49:23;96685.19;;;21.73;50.43
80851;BME280;70268;50.292;6.666;2023-06-05T11:51:53;96694.72;;;21.74;50.74
80851;BME280;70268;50.292;6.666;2023-06-05T11:54:26;96689.66;;;21.72;50.61
80851;BME280;70268;50.292;6.666;2023-06-05T11:56:58;96685.19;;;21.73;50.48
80851;BME280;70268;50.292;6.666;2023-06-05T11:59:27;96698.16;;;21.74;50.43
80851;BME280;70268;50.292;6.666;2023-06-05T12:01:57;96686.81;;;21.74;50.66
80851;BME280;70268;50.292;6.666;2023-06-05T12:04:26;96687.63;;;21.74;50.72
80851;BME280;70268;50.292;6.666;2023-06-05T12:06:55;96688.63;;;21.73;50.88
80851;BME280;70268;50.292;6.666;2023-06-05T12:09:24;96682.38;;;21.74;50.45
80851;BME280;70268;50.292;6.666;2023-06-05T12:12:04;96677.28;;;21.73;50.51
80851;BME280;70268;50.292;6.666;2023-06-05T12:14:34;96680.72;;;21.73;50.71
80851;BME280;70268;50.292;6.666;2023-06-05T12:17:10;96686.81;;;21.74;50.73
80851;BME280;70268;50.292;6.666;2023-06-05T12:19:39;96676.31;;;21.74;50.61
80851;BME280;70268;50.292;6.666;2023-06-05T12:22:08;96679.75;;;21.74;50.86
80851;BME280;70268;50.292;6.666;2023-06-05T12:24:37;96678.94;;;21.74;50.86
80851;BME280;70268;50.292;6.666;2023-06-05T12:27:06;96677.09;;;21.74;50.56
80851;BME280;70268;50.292;6.666;2023-06-05T12:29:36;96673.66;;;21.74;50.77
80851;BME280;70268;50.292;6.666;2023-06-05T12:32:21;96672.66;;;21.75;50.57
80851;BME280;70268;50.292;6.666;2023-06-05T12:34:51;96667.38;;;21.75;50.98
80851;BME280;70268;50.292;6.666;2023-06-05T12:37:31;96669.06;;;21.76;50.65
80851;BME280;70268;50.292;6.666;2023-06-05T12:40:03;96663.78;;;21.76;50.69
80851;BME280;70268;50.292;6.666;2023-06-05T12:42:36;96667.22;;;21.76;50.74
80851;BME280;70268;50.292;6.666;2023-06-05T12:45:06;96662.81;;;21.77;50.53
80851;BME280;70268;50.292;6.666;2023-06-05T12:47:37;96660.16;;;21.77;50.50
80851;BME280;70268;50.292;6.666;2023-06-05T12:50:07;96661.78;;;21.78;50.52
80851;BME280;70268;50.292;6.666;2023-06-05T12:52:39;96656.53;;;21.78;50.78
80851;BME280;70268;50.292;6.666;2023-06-05T12:55:09;96662.63;;;21.78;50.27
80851;BME280;70268;50.292;6.666;2023-06-05T12:57:38;96662.63;;;21.78;50.72
80851;BME280;70268;50.292;6.666;2023-06-05T13:00:08;96660.00;;;21.78;50.36
80851;BME280;70268;50.292;6.666;2023-06-05T13:02:43;96660.78;;;21.79;50.68
80851;BME280;70268;50.292;6.666;2023-06-05T13:05:13;96645.19;;;21.77;50.40
80851;BME280;70268;50.292;6.666;2023-06-05T13:07:42;96639.91;;;21.77;50.60
80851;BME280;70268;50.292;6.666;2023-06-05T13:10:12;96644.00;;;21.80;50.63
80851;BME280;70268;50.292;6.666;2023-06-05T13:12:41;96646.63;;;21.80;50.70
80851;BME280;70268;50.292;6.666;2023-06-05T13:15:10;96635.28;;;21.79;50.58
80851;BME280;70268;50.292;6.666;2023-06-05T13:17:39;96641.19;;;21.81;50.59
80851;BME280;70268;50.292;6.666;2023-06-05T13:20:09;96636.53;;;21.83;50.33
80851;BME280;70268;50.292;6.666;2023-06-05T13:22:39;96638.00;;;21.86;50.20
80851;BME280;70268;50.292;6.666;2023-06-05T13:25:08;96632.09;;;21.84;50.27